Oushoumaru — JL6476 — position and weather

sailwx.info

Track history (hours):
 
Tides and Currents Weather Stations Pressure Air Temp Water Temp Dewpoint Dewpoint Depression Visibility Wind Speed Wind Dir Waves Ship Positions

Oushoumaru

Last reported at 2017-Nov-05 08:06 UTC. Time now 2017-Nov-21 04:40 UTC.
Position N 34°59' E 139°44'.
Warning: this ship's position is 15 days out of date.

Length 76 m.

Type: Cargo ship. MMSI: 431500527.

Date/timePositionNaut miles runAvg speedWind from/ knotsBaromVisibWave heightAir tempDewpointWater temp
2017-Nov-05 08:06N 34°59' E 139°44'111.2
2017-Nov-05 07:58N 35°00' E 139°44'510.6
2017-Nov-05 07:30N 35°05' E 139°45'611.5
2017-Nov-05 07:00N 35°11' E 139°46'710.7
2017-Nov-05 06:22N 35°17' E 139°45'410.6
2017-Nov-05 06:00N 35°21' E 139°43'12 0.9
2017-Nov-04 16:46N 35°30' E 139°52'311.6
2017-Nov-04 16:29N 35°27' E 139°49'611.1
2017-Nov-04 15:58N 35°22' E 139°45'510.7
2017-Nov-04 15:30N 35°18' E 139°45'510.4
2017-Nov-04 15:00N 35°13' E 139°47'5 9.8
2017-Nov-04 14:30N 35°08' E 139°44'5 9.3
2017-Nov-04 14:00N 35°05' E 139°40'  
2017-Oct-26 10:59N 34°57' E 139°44'5 9.6
2017-Oct-26 10:30N 35°02' E 139°44'611.8
2017-Oct-26 10:00N 35°08' E 139°46'712.2
2017-Oct-26 09:27N 35°14' E 139°47'611.5
2017-Oct-26 08:57N 35°19' E 139°43'510.8
2017-Oct-26 08:30N 35°24' E 139°43'  
Track history (hours):
 
Tides and Currents Weather Stations Pressure Air Temp Water Temp Dewpoint Dewpoint Depression Visibility Wind Speed Wind Dir Waves Ship Positions

Oushoumaru

Last reported at 2017-Nov-05 08:06 UTC. Time now 2017-Nov-21 04:40 UTC.
Position N 34°59' E 139°44'.
Warning: this ship's position is 15 days out of date.

Length 76 m.

Type: Cargo ship. MMSI: 431500527.

Date/timePositionNaut miles runAvg speedWind from/ knotsBaromVisibWave heightAir tempDewpointWater temp
2017-Nov-05 08:06N 34°59' E 139°44'111.2
2017-Nov-05 07:58N 35°00' E 139°44'510.6
2017-Nov-05 07:30N 35°05' E 139°45'611.5
2017-Nov-05 07:00N 35°11' E 139°46'710.7
2017-Nov-05 06:22N 35°17' E 139°45'410.6
2017-Nov-05 06:00N 35°21' E 139°43'12 0.9
2017-Nov-04 16:46N 35°30' E 139°52'311.6
2017-Nov-04 16:29N 35°27' E 139°49'611.1
2017-Nov-04 15:58N 35°22' E 139°45'510.7
2017-Nov-04 15:30N 35°18' E 139°45'510.4
2017-Nov-04 15:00N 35°13' E 139°47'5 9.8
2017-Nov-04 14:30N 35°08' E 139°44'5 9.3
2017-Nov-04 14:00N 35°05' E 139°40'  
2017-Oct-26 10:59N 34°57' E 139°44'5 9.6
2017-Oct-26 10:30N 35°02' E 139°44'611.8
2017-Oct-26 10:00N 35°08' E 139°46'712.2
2017-Oct-26 09:27N 35°14' E 139°47'611.5
2017-Oct-26 08:57N 35°19' E 139°43'510.8
2017-Oct-26 08:30N 35°24' E 139°43'  

Dump ship's entire track history